sensor_id;sensor_type;location;lat;lon;timestamp;P1;durP1;ratioP1;P2;durP2;ratioP2
59028;SDS011;45919;51.420;5.454;2022-12-16T00:02:12;67.45;;;38.05;;
59028;SDS011;45919;51.420;5.454;2022-12-16T00:03:13;70.18;;;38.88;;
59028;SDS011;45919;51.420;5.454;2022-12-16T00:04:15;70.00;;;39.15;;
59028;SDS011;45919;51.420;5.454;2022-12-16T00:05:18;67.53;;;37.65;;
59028;SDS011;45919;51.420;5.454;2022-12-16T00:06:20;65.25;;;37.80;;
59028;SDS011;45919;51.420;5.454;2022-12-16T00:07:24;64.70;;;37.80;;
59028;SDS011;45919;51.420;5.454;2022-12-16T00:08:25;64.53;;;38.03;;
59028;SDS011;45919;51.420;5.454;2022-12-16T00:09:27;70.70;;;37.67;;
59028;SDS011;45919;51.420;5.454;2022-12-16T00:10:28;71.75;;;39.55;;
59028;SDS011;45919;51.420;5.454;2022-12-16T00:11:50;64.90;;;36.47;;
59028;SDS011;45919;51.420;5.454;2022-12-16T00:12:51;65.63;;;36.78;;
59028;SDS011;45919;51.420;5.454;2022-12-16T00:13:53;63.25;;;36.67;;
59028;SDS011;45919;51.420;5.454;2022-12-16T00:14:55;66.03;;;37.60;;
59028;SDS011;45919;51.420;5.454;2022-12-16T00:15:56;67.95;;;38.22;;
59028;SDS011;45919;51.420;5.454;2022-12-16T00:16:58;68.50;;;39.00;;
59028;SDS011;45919;51.420;5.454;2022-12-16T00:18:00;71.80;;;38.78;;
59028;SDS011;45919;51.420;5.454;2022-12-16T00:19:01;69.65;;;39.33;;
59028;SDS011;45919;51.420;5.454;2022-12-16T00:20:03;68.72;;;39.78;;
59028;SDS011;45919;51.420;5.454;2022-12-16T00:21:06;64.43;;;38.22;;
59028;SDS011;45919;51.420;5.454;2022-12-16T00:22:08;67.35;;;38.45;;
59028;SDS011;45919;51.420;5.454;2022-12-16T00:23:10;69.00;;;40.55;;
59028;SDS011;45919;51.420;5.454;2022-12-16T00:24:12;75.63;;;41.17;;
59028;SDS011;45919;51.420;5.454;2022-12-16T00:25:13;67.65;;;39.20;;
59028;SDS011;45919;51.420;5.454;2022-12-16T00:26:15;66.65;;;39.20;;
59028;SDS011;45919;51.420;5.454;2022-12-16T00:27:17;69.45;;;39.60;;
59028;SDS011;45919;51.420;5.454;2022-12-16T00:28:18;72.30;;;39.60;;
59028;SDS011;45919;51.420;5.454;2022-12-16T00:29:23;70.20;;;39.15;;
59028;SDS011;45919;51.420;5.454;2022-12-16T00:30:24;68.78;;;39.20;;
59028;SDS011;45919;51.420;5.454;2022-12-16T00:31:26;68.93;;;39.67;;
59028;SDS011;45919;51.420;5.454;2022-12-16T00:32:28;71.97;;;38.85;;
59028;SDS011;45919;51.420;5.454;2022-12-16T00:33:29;62.83;;;38.67;;
59028;SDS011;45919;51.420;5.454;2022-12-16T00:34:32;66.10;;;39.17;;
59028;SDS011;45919;51.420;5.454;2022-12-16T00:35:33;61.92;;;38.88;;
59028;SDS011;45919;51.420;5.454;2022-12-16T00:36:35;66.25;;;39.03;;
59028;SDS011;45919;51.420;5.454;2022-12-16T00:37:36;69.22;;;39.20;;
59028;SDS011;45919;51.420;5.454;2022-12-16T00:38:38;67.90;;;37.92;;
59028;SDS011;45919;51.420;5.454;2022-12-16T00:39:40;66.38;;;39.97;;
59028;SDS011;45919;51.420;5.454;2022-12-16T00:40:42;63.88;;;38.55;;
59028;SDS011;45919;51.420;5.454;2022-12-16T00:41:43;67.35;;;37.92;;
59028;SDS011;45919;51.420;5.454;2022-12-16T00:42:45;66.60;;;38.58;;
59028;SDS011;45919;51.420;5.454;2022-12-16T00:43:47;68.97;;;39.15;;
59028;SDS011;45919;51.420;5.454;2022-12-16T00:44:48;65.35;;;39.83;;
59028;SDS011;45919;51.420;5.454;2022-12-16T00:45:50;63.95;;;40.00;;
59028;SDS011;45919;51.420;5.454;2022-12-16T00:46:51;64.15;;;38.78;;
59028;SDS011;45919;51.420;5.454;2022-12-16T00:47:53;68.93;;;39.75;;
59028;SDS011;45919;51.420;5.454;2022-12-16T00:48:54;65.85;;;37.67;;
59028;SDS011;45919;51.420;5.454;2022-12-16T00:49:56;69.65;;;37.90;;
59028;SDS011;45919;51.420;5.454;2022-12-16T00:50:58;67.10;;;38.70;;
59028;SDS011;45919;51.420;5.454;2022-12-16T00:51:59;68.10;;;40.20;;
59028;SDS011;45919;51.420;5.454;2022-12-16T00:53:01;65.13;;;37.90;;
59028;SDS011;45919;51.420;5.454;2022-12-16T00:54:03;62.90;;;38.78;;
59028;SDS011;45919;51.420;5.454;2022-12-16T00:55:04;68.80;;;38.47;;
59028;SDS011;45919;51.420;5.454;2022-12-16T00:56:07;66.10;;;38.80;;
59028;SDS011;45919;51.420;5.454;2022-12-16T00:57:10;65.35;;;38.78;;
59028;SDS011;45919;51.420;5.454;2022-12-16T00:58:12;67.57;;;39.17;;
59028;SDS011;45919;51.420;5.454;2022-12-16T00:59:14;65.30;;;38.72;;
59028;SDS011;45919;51.420;5.454;2022-12-16T01:00:16;61.60;;;38.20;;
59028;SDS011;45919;51.420;5.454;2022-12-16T01:01:18;70.43;;;40.63;;
59028;SDS011;45919;51.420;5.454;2022-12-16T01:02:20;72.32;;;39.13;;
59028;SDS011;45919;51.420;5.454;2022-12-16T01:03:21;70.18;;;39.00;;
59028;SDS011;45919;51.420;5.454;2022-12-16T01:04:23;66.07;;;38.08;;
59028;SDS011;45919;51.420;5.454;2022-12-16T01:05:26;67.28;;;38.72;;
59028;SDS011;45919;51.420;5.454;2022-12-16T01:06:28;69.53;;;38.83;;
59028;SDS011;45919;51.420;5.454;2022-12-16T01:07:30;64.72;;;38.03;;
59028;SDS011;45919;51.420;5.454;2022-12-16T01:08:31;64.60;;;37.85;;
59028;SDS011;45919;51.420;5.454;2022-12-16T01:09:33;62.10;;;37.50;;
59028;SDS011;45919;51.420;5.454;2022-12-16T01:10:34;63.28;;;38.35;;
59028;SDS011;45919;51.420;5.454;2022-12-16T01:11:36;68.07;;;39.40;;
59028;SDS011;45919;51.420;5.454;2022-12-16T01:12:37;70.50;;;39.92;;
59028;SDS011;45919;51.420;5.454;2022-12-16T01:13:39;64.18;;;39.92;;
59028;SDS011;45919;51.420;5.454;2022-12-16T01:14:41;72.13;;;38.92;;
59028;SDS011;45919;51.420;5.454;2022-12-16T01:15:42;67.00;;;39.22;;
59028;SDS011;45919;51.420;5.454;2022-12-16T01:16:44;63.97;;;38.05;;
59028;SDS011;45919;51.420;5.454;2022-12-16T01:17:46;68.43;;;39.88;;
59028;SDS011;45919;51.420;5.454;2022-12-16T01:18:47;63.90;;;39.63;;
59028;SDS011;45919;51.420;5.454;2022-12-16T01:19:49;69.20;;;40.05;;
59028;SDS011;45919;51.420;5.454;2022-12-16T01:20:50;67.25;;;40.60;;
59028;SDS011;45919;51.420;5.454;2022-12-16T01:21:52;66.80;;;40.33;;
59028;SDS011;45919;51.420;5.454;2022-12-16T01:22:53;67.03;;;40.40;;
59028;SDS011;45919;51.420;5.454;2022-12-16T01:23:55;68.38;;;40.83;;
59028;SDS011;45919;51.420;5.454;2022-12-16T01:24:57;63.40;;;38.75;;
59028;SDS011;45919;51.420;5.454;2022-12-16T01:26:00;69.28;;;39.65;;
59028;SDS011;45919;51.420;5.454;2022-12-16T01:27:02;65.03;;;40.17;;
59028;SDS011;45919;51.420;5.454;2022-12-16T01:28:04;69.82;;;40.35;;
59028;SDS011;45919;51.420;5.454;2022-12-16T01:29:05;70.18;;;39.97;;
59028;SDS011;45919;51.420;5.454;2022-12-16T01:30:07;68.90;;;39.95;;
59028;SDS011;45919;51.420;5.454;2022-12-16T01:31:10;67.50;;;39.58;;
59028;SDS011;45919;51.420;5.454;2022-12-16T01:32:12;67.57;;;40.58;;
59028;SDS011;45919;51.420;5.454;2022-12-16T01:33:15;71.45;;;40.67;;
59028;SDS011;45919;51.420;5.454;2022-12-16T01:34:17;73.25;;;42.60;;
59028;SDS011;45919;51.420;5.454;2022-12-16T01:35:19;73.88;;;41.10;;
59028;SDS011;45919;51.420;5.454;2022-12-16T01:36:40;68.43;;;40.58;;
59028;SDS011;45919;51.420;5.454;2022-12-16T01:37:42;66.50;;;38.83;;
59028;SDS011;45919;51.420;5.454;2022-12-16T01:38:43;69.45;;;40.38;;
59028;SDS011;45919;51.420;5.454;2022-12-16T01:39:45;73.88;;;39.45;;
59028;SDS011;45919;51.420;5.454;2022-12-16T01:40:47;65.85;;;40.33;;
59028;SDS011;45919;51.420;5.454;2022-12-16T01:41:49;71.10;;;41.08;;
59028;SDS011;45919;51.420;5.454;2022-12-16T01:42:51;70.85;;;40.22;;
59028;SDS011;45919;51.420;5.454;2022-12-16T01:44:09;69.65;;;39.65;;
59028;SDS011;45919;51.420;5.454;2022-12-16T01:45:31;72.95;;;37.83;;
59028;SDS011;45919;51.420;5.454;2022-12-16T01:46:34;65.32;;;37.22;;
59028;SDS011;45919;51.420;5.454;2022-12-16T01:47:38;66.88;;;39.55;;
59028;SDS011;45919;51.420;5.454;2022-12-16T01:49:58;66.95;;;38.95;;
59028;SDS011;45919;51.420;5.454;2022-12-16T01:51:06;67.88;;;39.40;;
59028;SDS011;45919;51.420;5.454;2022-12-16T01:52:13;64.68;;;38.85;;
59028;SDS011;45919;51.420;5.454;2022-12-16T01:53:19;77.13;;;40.72;;
59028;SDS011;45919;51.420;5.454;2022-12-16T01:54:24;70.00;;;39.88;;
59028;SDS011;45919;51.420;5.454;2022-12-16T01:55:33;70.03;;;38.13;;
59028;SDS011;45919;51.420;5.454;2022-12-16T01:56:40;63.47;;;38.40;;
59028;SDS011;45919;51.420;5.454;2022-12-16T01:57:51;68.32;;;40.17;;
59028;SDS011;45919;51.420;5.454;2022-12-16T01:59:01;64.32;;;38.10;;
59028;SDS011;45919;51.420;5.454;2022-12-16T02:00:03;72.10;;;39.42;;
59028;SDS011;45919;51.420;5.454;2022-12-16T02:01:09;69.10;;;38.90;;
59028;SDS011;45919;51.420;5.454;2022-12-16T02:02:11;71.00;;;39.90;;
59028;SDS011;45919;51.420;5.454;2022-12-16T02:03:14;71.47;;;39.75;;
59028;SDS011;45919;51.420;5.454;2022-12-16T02:04:16;68.00;;;40.10;;
59028;SDS011;45919;51.420;5.454;2022-12-16T02:05:17;70.30;;;39.70;;
59028;SDS011;45919;51.420;5.454;2022-12-16T02:06:22;67.20;;;38.15;;
59028;SDS011;45919;51.420;5.454;2022-12-16T02:07:24;69.20;;;39.60;;
59028;SDS011;45919;51.420;5.454;2022-12-16T02:08:26;69.47;;;39.88;;
59028;SDS011;45919;51.420;5.454;2022-12-16T02:09:27;64.20;;;38.75;;
59028;SDS011;45919;51.420;5.454;2022-12-16T02:13:20;67.93;;;37.53;;
59028;SDS011;45919;51.420;5.454;2022-12-16T02:18:08;66.65;;;36.33;;
59028;SDS011;45919;51.420;5.454;2022-12-16T02:35:12;58.40;;;33.30;;
59028;SDS011;45919;51.420;5.454;2022-12-16T02:36:33;64.32;;;35.97;;
59028;SDS011;45919;51.420;5.454;2022-12-16T02:37:50;64.88;;;37.13;;
59028;SDS011;45919;51.420;5.454;2022-12-16T02:39:03;69.85;;;36.65;;
59028;SDS011;45919;51.420;5.454;2022-12-16T02:40:17;66.88;;;36.90;;
59028;SDS011;45919;51.420;5.454;2022-12-16T02:42:40;65.53;;;37.10;;
59028;SDS011;45919;51.420;5.454;2022-12-16T02:43:50;65.05;;;37.78;;
59028;SDS011;45919;51.420;5.454;2022-12-16T02:45:00;67.30;;;37.42;;
59028;SDS011;45919;51.420;5.454;2022-12-16T02:46:06;66.97;;;37.13;;
59028;SDS011;45919;51.420;5.454;2022-12-16T02:47:08;70.75;;;38.30;;
59028;SDS011;45919;51.420;5.454;2022-12-16T02:48:10;69.88;;;39.42;;
59028;SDS011;45919;51.420;5.454;2022-12-16T02:50:48;65.88;;;38.72;;
59028;SDS011;45919;51.420;5.454;2022-12-16T02:51:45;65.93;;;37.10;;
59028;SDS011;45919;51.420;5.454;2022-12-16T02:52:47;69.05;;;38.75;;
59028;SDS011;45919;51.420;5.454;2022-12-16T02:53:50;69.38;;;39.83;;
59028;SDS011;45919;51.420;5.454;2022-12-16T02:54:55;70.30;;;39.78;;
59028;SDS011;45919;51.420;5.454;2022-12-16T02:56:03;63.72;;;38.80;;
59028;SDS011;45919;51.420;5.454;2022-12-16T02:58:46;66.30;;;38.00;;
59028;SDS011;45919;51.420;5.454;2022-12-16T03:01:03;71.07;;;39.28;;
59028;SDS011;45919;51.420;5.454;2022-12-16T03:03:39;67.75;;;37.38;;
59028;SDS011;45919;51.420;5.454;2022-12-16T03:04:51;61.22;;;36.70;;
59028;SDS011;45919;51.420;5.454;2022-12-16T03:05:56;66.85;;;37.35;;
59028;SDS011;45919;51.420;5.454;2022-12-16T03:07:01;69.68;;;39.00;;
59028;SDS011;45919;51.420;5.454;2022-12-16T03:08:09;64.95;;;37.70;;
59028;SDS011;45919;51.420;5.454;2022-12-16T03:09:15;64.20;;;37.83;;
59028;SDS011;45919;51.420;5.454;2022-12-16T03:10:23;67.28;;;38.17;;
59028;SDS011;45919;51.420;5.454;2022-12-16T03:11:28;68.68;;;38.67;;
59028;SDS011;45919;51.420;5.454;2022-12-16T03:12:31;68.30;;;39.85;;
59028;SDS011;45919;51.420;5.454;2022-12-16T03:13:42;64.72;;;40.88;;
59028;SDS011;45919;51.420;5.454;2022-12-16T03:14:49;63.80;;;37.97;;
59028;SDS011;45919;51.420;5.454;2022-12-16T03:15:53;68.72;;;37.78;;
59028;SDS011;45919;51.420;5.454;2022-12-16T03:16:58;70.00;;;39.58;;
59028;SDS011;45919;51.420;5.454;2022-12-16T03:18:01;69.10;;;38.88;;
59028;SDS011;45919;51.420;5.454;2022-12-16T03:19:06;70.10;;;40.15;;
59028;SDS011;45919;51.420;5.454;2022-12-16T03:20:14;71.82;;;40.20;;
59028;SDS011;45919;51.420;5.454;2022-12-16T03:21:26;64.93;;;38.30;;
59028;SDS011;45919;51.420;5.454;2022-12-16T03:22:32;66.40;;;39.65;;
59028;SDS011;45919;51.420;5.454;2022-12-16T03:23:39;68.38;;;38.92;;
59028;SDS011;45919;51.420;5.454;2022-12-16T03:24:47;69.10;;;40.10;;
59028;SDS011;45919;51.420;5.454;2022-12-16T03:25:49;67.90;;;40.13;;
59028;SDS011;45919;51.420;5.454;2022-12-16T03:28:44;66.53;;;38.05;;
59028;SDS011;45919;51.420;5.454;2022-12-16T03:30:05;67.00;;;37.60;;
59028;SDS011;45919;51.420;5.454;2022-12-16T03:31:14;67.57;;;36.28;;
59028;SDS011;45919;51.420;5.454;2022-12-16T03:32:32;66.32;;;37.78;;
59028;SDS011;45919;51.420;5.454;2022-12-16T03:33:58;66.50;;;38.08;;
59028;SDS011;45919;51.420;5.454;2022-12-16T03:35:25;67.97;;;38.30;;
59028;SDS011;45919;51.420;5.454;2022-12-16T03:36:28;62.75;;;37.20;;
59028;SDS011;45919;51.420;5.454;2022-12-16T03:37:35;66.85;;;37.30;;
59028;SDS011;45919;51.420;5.454;2022-12-16T03:38:38;68.82;;;39.67;;
59028;SDS011;45919;51.420;5.454;2022-12-16T03:39:43;66.25;;;39.05;;
59028;SDS011;45919;51.420;5.454;2022-12-16T03:40:48;69.18;;;37.97;;
59028;SDS011;45919;51.420;5.454;2022-12-16T03:41:51;67.53;;;38.97;;
59028;SDS011;45919;51.420;5.454;2022-12-16T03:42:54;70.05;;;38.95;;
59028;SDS011;45919;51.420;5.454;2022-12-16T03:43:57;64.68;;;38.45;;
59028;SDS011;45919;51.420;5.454;2022-12-16T03:44:59;67.97;;;38.55;;
59028;SDS011;45919;51.420;5.454;2022-12-16T03:46:01;69.47;;;38.35;;
59028;SDS011;45919;51.420;5.454;2022-12-16T03:47:06;60.90;;;38.45;;
59028;SDS011;45919;51.420;5.454;2022-12-16T03:48:09;63.70;;;37.50;;
59028;SDS011;45919;51.420;5.454;2022-12-16T03:49:12;64.57;;;37.35;;
59028;SDS011;45919;51.420;5.454;2022-12-16T03:50:13;64.35;;;38.10;;
59028;SDS011;45919;51.420;5.454;2022-12-16T03:51:16;68.05;;;38.47;;
59028;SDS011;45919;51.420;5.454;2022-12-16T03:52:21;69.18;;;38.90;;
59028;SDS011;45919;51.420;5.454;2022-12-16T03:53:22;65.68;;;37.92;;
59028;SDS011;45919;51.420;5.454;2022-12-16T03:54:26;65.55;;;37.38;;
59028;SDS011;45919;51.420;5.454;2022-12-16T03:55:28;68.57;;;38.17;;
59028;SDS011;45919;51.420;5.454;2022-12-16T03:56:30;66.93;;;38.65;;
59028;SDS011;45919;51.420;5.454;2022-12-16T03:57:31;67.88;;;39.33;;
59028;SDS011;45919;51.420;5.454;2022-12-16T03:58:33;67.50;;;38.38;;
59028;SDS011;45919;51.420;5.454;2022-12-16T03:59:35;67.70;;;38.60;;
59028;SDS011;45919;51.420;5.454;2022-12-16T04:00:37;65.25;;;38.40;;
59028;SDS011;45919;51.420;5.454;2022-12-16T04:01:38;64.90;;;38.03;;
59028;SDS011;45919;51.420;5.454;2022-12-16T04:02:40;67.45;;;38.08;;
59028;SDS011;45919;51.420;5.454;2022-12-16T04:03:42;67.82;;;39.95;;
59028;SDS011;45919;51.420;5.454;2022-12-16T04:04:44;71.72;;;38.92;;
59028;SDS011;45919;51.420;5.454;2022-12-16T04:05:46;62.65;;;39.90;;
59028;SDS011;45919;51.420;5.454;2022-12-16T04:06:47;71.40;;;38.58;;
59028;SDS011;45919;51.420;5.454;2022-12-16T04:08:09;65.80;;;36.25;;
59028;SDS011;45919;51.420;5.454;2022-12-16T04:09:10;66.68;;;39.15;;
59028;SDS011;45919;51.420;5.454;2022-12-16T04:10:12;71.78;;;40.60;;
59028;SDS011;45919;51.420;5.454;2022-12-16T04:11:13;67.22;;;38.50;;
59028;SDS011;45919;51.420;5.454;2022-12-16T04:12:34;64.10;;;37.58;;
59028;SDS011;45919;51.420;5.454;2022-12-16T04:13:54;64.45;;;36.90;;
59028;SDS011;45919;51.420;5.454;2022-12-16T04:15:14;69.57;;;37.97;;
59028;SDS011;45919;51.420;5.454;2022-12-16T04:16:34;64.70;;;36.08;;
59028;SDS011;45919;51.420;5.454;2022-12-16T04:17:55;61.97;;;34.92;;
59028;SDS011;45919;51.420;5.454;2022-12-16T04:19:20;63.63;;;35.28;;
59028;SDS011;45919;51.420;5.454;2022-12-16T04:20:54;62.58;;;35.10;;
59028;SDS011;45919;51.420;5.454;2022-12-16T04:22:19;63.13;;;33.33;;
59028;SDS011;45919;51.420;5.454;2022-12-16T04:23:55;59.78;;;33.28;;
59028;SDS011;45919;51.420;5.454;2022-12-16T04:25:20;64.63;;;36.42;;
59028;SDS011;45919;51.420;5.454;2022-12-16T04:26:24;63.70;;;34.75;;
59028;SDS011;45919;51.420;5.454;2022-12-16T04:27:26;69.15;;;38.47;;
59028;SDS011;45919;51.420;5.454;2022-12-16T04:28:27;75.85;;;41.17;;
59028;SDS011;45919;51.420;5.454;2022-12-16T04:29:29;82.53;;;40.40;;
59028;SDS011;45919;51.420;5.454;2022-12-16T04:30:31;79.45;;;42.22;;
59028;SDS011;45919;51.420;5.454;2022-12-16T04:31:36;78.93;;;40.35;;
59028;SDS011;45919;51.420;5.454;2022-12-16T04:32:38;81.70;;;43.28;;
59028;SDS011;45919;51.420;5.454;2022-12-16T04:33:58;83.22;;;40.33;;
59028;SDS011;45919;51.420;5.454;2022-12-16T04:36:39;75.28;;;37.47;;
59028;SDS011;45919;51.420;5.454;2022-12-16T04:38:16;79.80;;;38.08;;
59028;SDS011;45919;51.420;5.454;2022-12-16T04:39:36;85.82;;;40.47;;
59028;SDS011;45919;51.420;5.454;2022-12-16T04:40:56;76.53;;;38.75;;
59028;SDS011;45919;51.420;5.454;2022-12-16T04:42:16;76.30;;;38.88;;
59028;SDS011;45919;51.420;5.454;2022-12-16T04:44:56;81.60;;;35.65;;
59028;SDS011;45919;51.420;5.454;2022-12-16T04:46:16;72.15;;;35.03;;
59028;SDS011;45919;51.420;5.454;2022-12-16T04:47:36;78.93;;;39.00;;
59028;SDS011;45919;51.420;5.454;2022-12-16T04:48:57;89.43;;;39.53;;
59028;SDS011;45919;51.420;5.454;2022-12-16T04:50:17;83.57;;;39.10;;
59028;SDS011;45919;51.420;5.454;2022-12-16T04:51:38;87.45;;;38.72;;
59028;SDS011;45919;51.420;5.454;2022-12-16T04:52:58;82.70;;;38.58;;
59028;SDS011;45919;51.420;5.454;2022-12-16T04:54:18;82.07;;;40.22;;
59028;SDS011;45919;51.420;5.454;2022-12-16T04:55:38;84.78;;;38.15;;
59028;SDS011;45919;51.420;5.454;2022-12-16T04:57:02;77.43;;;39.35;;
59028;SDS011;45919;51.420;5.454;2022-12-16T04:58:22;84.53;;;38.92;;
59028;SDS011;45919;51.420;5.454;2022-12-16T04:59:53;85.28;;;39.92;;
59028;SDS011;45919;51.420;5.454;2022-12-16T05:01:13;88.30;;;38.58;;
59028;SDS011;45919;51.420;5.454;2022-12-16T05:02:33;87.38;;;38.85;;
59028;SDS011;45919;51.420;5.454;2022-12-16T05:03:53;85.25;;;40.42;;
59028;SDS011;45919;51.420;5.454;2022-12-16T05:05:13;88.47;;;42.30;;
59028;SDS011;45919;51.420;5.454;2022-12-16T05:06:34;82.00;;;36.72;;
59028;SDS011;45919;51.420;5.454;2022-12-16T05:07:54;92.22;;;40.22;;
59028;SDS011;45919;51.420;5.454;2022-12-16T05:09:14;95.63;;;40.70;;
59028;SDS011;45919;51.420;5.454;2022-12-16T05:10:36;83.85;;;40.08;;
59028;SDS011;45919;51.420;5.454;2022-12-16T05:11:56;92.60;;;42.88;;
59028;SDS011;45919;51.420;5.454;2022-12-16T05:13:16;103.63;;;44.38;;
59028;SDS011;45919;51.420;5.454;2022-12-16T05:14:36;91.85;;;40.40;;
59028;SDS011;45919;51.420;5.454;2022-12-16T05:15:57;96.70;;;42.90;;
59028;SDS011;45919;51.420;5.454;2022-12-16T05:17:17;88.80;;;41.45;;
59028;SDS011;45919;51.420;5.454;2022-12-16T05:18:38;95.90;;;41.97;;
59028;SDS011;45919;51.420;5.454;2022-12-16T05:19:58;106.85;;;42.60;;
59028;SDS011;45919;51.420;5.454;2022-12-16T05:21:19;96.78;;;40.40;;
59028;SDS011;45919;51.420;5.454;2022-12-16T05:22:40;100.07;;;41.67;;
59028;SDS011;45919;51.420;5.454;2022-12-16T05:24:00;98.72;;;41.35;;
59028;SDS011;45919;51.420;5.454;2022-12-16T05:25:20;89.80;;;39.80;;
59028;SDS011;45919;51.420;5.454;2022-12-16T05:26:41;96.20;;;40.10;;
59028;SDS011;45919;51.420;5.454;2022-12-16T05:28:01;101.65;;;40.25;;
59028;SDS011;45919;51.420;5.454;2022-12-16T05:29:21;112.18;;;43.45;;
59028;SDS011;45919;51.420;5.454;2022-12-16T05:30:41;96.65;;;41.05;;
59028;SDS011;45919;51.420;5.454;2022-12-16T05:33:21;86.35;;;39.35;;
59028;SDS011;45919;51.420;5.454;2022-12-16T05:34:42;94.78;;;39.88;;
59028;SDS011;45919;51.420;5.454;2022-12-16T05:36:02;100.88;;;40.88;;
59028;SDS011;45919;51.420;5.454;2022-12-16T05:37:23;94.30;;;40.50;;
59028;SDS011;45919;51.420;5.454;2022-12-16T05:40:03;95.78;;;39.30;;
59028;SDS011;45919;51.420;5.454;2022-12-16T05:41:23;87.90;;;39.53;;
59028;SDS011;45919;51.420;5.454;2022-12-16T05:42:46;104.53;;;42.17;;
59028;SDS011;45919;51.420;5.454;2022-12-16T05:44:06;98.03;;;43.67;;
59028;SDS011;45919;51.420;5.454;2022-12-16T05:45:26;100.80;;;42.30;;
59028;SDS011;45919;51.420;5.454;2022-12-16T05:46:47;97.63;;;42.42;;
59028;SDS011;45919;51.420;5.454;2022-12-16T05:48:07;101.15;;;41.95;;
59028;SDS011;45919;51.420;5.454;2022-12-16T05:49:27;87.70;;;41.10;;
59028;SDS011;45919;51.420;5.454;2022-12-16T05:50:47;95.13;;;41.33;;
59028;SDS011;45919;51.420;5.454;2022-12-16T05:52:07;93.63;;;39.55;;
59028;SDS011;45919;51.420;5.454;2022-12-16T05:53:27;87.82;;;39.60;;
59028;SDS011;45919;51.420;5.454;2022-12-16T05:55:04;95.88;;;41.03;;
59028;SDS011;45919;51.420;5.454;2022-12-16T05:56:26;94.05;;;42.28;;
59028;SDS011;45919;51.420;5.454;2022-12-16T05:57:50;98.03;;;41.45;;
59028;SDS011;45919;51.420;5.454;2022-12-16T05:59:10;90.13;;;40.38;;
59028;SDS011;45919;51.420;5.454;2022-12-16T06:01:50;88.40;;;37.60;;
59028;SDS011;45919;51.420;5.454;2022-12-16T06:03:10;94.78;;;40.95;;
59028;SDS011;45919;51.420;5.454;2022-12-16T06:04:30;92.03;;;38.50;;
59028;SDS011;45919;51.420;5.454;2022-12-16T06:05:51;96.20;;;40.08;;
59028;SDS011;45919;51.420;5.454;2022-12-16T06:07:11;94.05;;;40.95;;
59028;SDS011;45919;51.420;5.454;2022-12-16T06:08:31;93.25;;;39.70;;
59028;SDS011;45919;51.420;5.454;2022-12-16T06:09:51;102.22;;;43.20;;
59028;SDS011;45919;51.420;5.454;2022-12-16T06:11:11;93.55;;;40.65;;
59028;SDS011;45919;51.420;5.454;2022-12-16T06:12:31;101.60;;;41.53;;
59028;SDS011;45919;51.420;5.454;2022-12-16T06:13:51;103.80;;;42.30;;
59028;SDS011;45919;51.420;5.454;2022-12-16T06:15:12;100.88;;;40.92;;
59028;SDS011;45919;51.420;5.454;2022-12-16T06:16:32;93.45;;;41.53;;
59028;SDS011;45919;51.420;5.454;2022-12-16T06:17:52;97.32;;;42.15;;
59028;SDS011;45919;51.420;5.454;2022-12-16T06:19:12;101.18;;;43.40;;
59028;SDS011;45919;51.420;5.454;2022-12-16T06:20:33;93.80;;;42.13;;
59028;SDS011;45919;51.420;5.454;2022-12-16T06:21:53;106.40;;;42.40;;
59028;SDS011;45919;51.420;5.454;2022-12-16T06:23:13;101.65;;;43.97;;
59028;SDS011;45919;51.420;5.454;2022-12-16T06:24:34;102.47;;;43.70;;
59028;SDS011;45919;51.420;5.454;2022-12-16T06:25:55;108.38;;;46.60;;
59028;SDS011;45919;51.420;5.454;2022-12-16T06:27:15;101.28;;;42.38;;
59028;SDS011;45919;51.420;5.454;2022-12-16T06:28:35;91.18;;;41.63;;
59028;SDS011;45919;51.420;5.454;2022-12-16T06:29:56;101.38;;;42.47;;
59028;SDS011;45919;51.420;5.454;2022-12-16T06:31:36;105.68;;;42.63;;
59028;SDS011;45919;51.420;5.454;2022-12-16T06:32:56;103.43;;;42.42;;
59028;SDS011;45919;51.420;5.454;2022-12-16T06:34:33;93.90;;;39.92;;
59028;SDS011;45919;51.420;5.454;2022-12-16T06:35:53;92.75;;;43.83;;
59028;SDS011;45919;51.420;5.454;2022-12-16T06:37:13;101.38;;;43.65;;
59028;SDS011;45919;51.420;5.454;2022-12-16T06:38:33;93.82;;;40.22;;
59028;SDS011;45919;51.420;5.454;2022-12-16T06:42:33;93.28;;;39.80;;
59028;SDS011;45919;51.420;5.454;2022-12-16T06:43:53;102.47;;;42.53;;
59028;SDS011;45919;51.420;5.454;2022-12-16T06:45:13;108.75;;;43.65;;
59028;SDS011;45919;51.420;5.454;2022-12-16T06:46:34;93.13;;;43.08;;
59028;SDS011;45919;51.420;5.454;2022-12-16T06:47:55;94.30;;;42.50;;
59028;SDS011;45919;51.420;5.454;2022-12-16T06:49:15;101.90;;;43.78;;
59028;SDS011;45919;51.420;5.454;2022-12-16T06:50:35;99.75;;;44.08;;
59028;SDS011;45919;51.420;5.454;2022-12-16T06:51:55;104.78;;;43.42;;
59028;SDS011;45919;51.420;5.454;2022-12-16T06:53:15;100.13;;;42.63;;
59028;SDS011;45919;51.420;5.454;2022-12-16T06:54:36;103.30;;;43.10;;
59028;SDS011;45919;51.420;5.454;2022-12-16T06:55:56;103.50;;;43.72;;
59028;SDS011;45919;51.420;5.454;2022-12-16T06:57:16;101.28;;;43.00;;
59028;SDS011;45919;51.420;5.454;2022-12-16T06:58:36;109.22;;;42.78;;
59028;SDS011;45919;51.420;5.454;2022-12-16T06:59:56;103.82;;;43.53;;
59028;SDS011;45919;51.420;5.454;2022-12-16T07:01:16;117.18;;;44.50;;
59028;SDS011;45919;51.420;5.454;2022-12-16T07:02:37;99.28;;;41.95;;
59028;SDS011;45919;51.420;5.454;2022-12-16T07:03:57;98.75;;;41.22;;
59028;SDS011;45919;51.420;5.454;2022-12-16T07:05:18;104.40;;;39.97;;
59028;SDS011;45919;51.420;5.454;2022-12-16T07:06:38;101.35;;;41.72;;
59028;SDS011;45919;51.420;5.454;2022-12-16T07:07:58;103.03;;;40.58;;
59028;SDS011;45919;51.420;5.454;2022-12-16T07:09:19;100.22;;;41.80;;
59028;SDS011;45919;51.420;5.454;2022-12-16T07:10:39;99.15;;;40.88;;
59028;SDS011;45919;51.420;5.454;2022-12-16T07:12:09;98.68;;;40.13;;
59028;SDS011;45919;51.420;5.454;2022-12-16T07:13:29;95.00;;;40.95;;
59028;SDS011;45919;51.420;5.454;2022-12-16T07:14:50;102.50;;;40.40;;
59028;SDS011;45919;51.420;5.454;2022-12-16T07:16:11;97.72;;;40.03;;
59028;SDS011;45919;51.420;5.454;2022-12-16T07:17:32;100.00;;;39.85;;
59028;SDS011;45919;51.420;5.454;2022-12-16T07:18:52;111.65;;;42.63;;
59028;SDS011;45919;51.420;5.454;2022-12-16T07:21:32;91.10;;;37.90;;
59028;SDS011;45919;51.420;5.454;2022-12-16T07:22:52;100.63;;;39.65;;
59028;SDS011;45919;51.420;5.454;2022-12-16T07:24:17;107.97;;;40.97;;
59028;SDS011;45919;51.420;5.454;2022-12-16T07:25:38;107.47;;;40.95;;
59028;SDS011;45919;51.420;5.454;2022-12-16T07:27:06;104.32;;;40.17;;
59028;SDS011;45919;51.420;5.454;2022-12-16T07:28:26;113.35;;;42.13;;
59028;SDS011;45919;51.420;5.454;2022-12-16T07:29:46;95.50;;;37.70;;
59028;SDS011;45919;51.420;5.454;2022-12-16T07:31:06;107.18;;;41.08;;
59028;SDS011;45919;51.420;5.454;2022-12-16T07:32:26;111.47;;;40.15;;
59028;SDS011;45919;51.420;5.454;2022-12-16T07:33:46;116.85;;;42.55;;
59028;SDS011;45919;51.420;5.454;2022-12-16T07:35:06;112.88;;;42.08;;
59028;SDS011;45919;51.420;5.454;2022-12-16T07:36:26;113.50;;;43.85;;
59028;SDS011;45919;51.420;5.454;2022-12-16T07:37:47;111.15;;;41.72;;
59028;SDS011;45919;51.420;5.454;2022-12-16T07:39:07;121.93;;;43.88;;